KMLS/MLS METAR and TAF weather

Enter ICAO airport designator
Station Type Date Time Source
KMLS METAR 2020/01/26 00:53 UTC NOAA

KMLS 260053Z AUTO 29009KT 10SM OVC090 04/M03 A2989 RMK AO2 SLP142 T00391028


Station Type Date Time Source
KMLS Decoded METAR 2020/01/26 00:53 UTC NOAA

MILES CITY WILEY FIELD, MT, United States (KMLS) 46-26N 105-53W 801M
Jan 25, 2020 - 07:53 PM EST / 2020.01.26 0053 UTC
Wind: from the WNW (290 degrees) at 10 MPH (9 KT):0
Visibility: 10 mile(s):0
Sky conditions: overcast
Temperature: 39.0 F (3.9 C)
Dew Point: 27.0 F (-2.8 C)
Relative Humidity: 61%
Pressure (altimeter): 29.89 in. Hg (1012 hPa)
ob: KMLS 260053Z AUTO 29009KT 10SM OVC090 04/M03 A2989 RMK AO2 SLP142 T00391028
cycle: 1

Station Type Date Time Source
KMLS TAF 2020/01/25 18:24 UTC NOAA

KMLS 251723Z 2518/2618 26010KT P6SM SCT100
FM252000 28014G22KT P6SM SCT100 BKN200
FM260200 28010KT P6SM SCT100 BKN150
FM260600 32008KT P6SM BKN150

Example: see airport list